createdAt,value
2022-11-13T00:02:53.662Z,62.76
2022-11-13T00:08:14.146Z,63.03
2022-11-13T00:13:35.139Z,63.19
2022-11-13T00:18:55.598Z,62.94
2022-11-13T00:24:15.901Z,63.09
2022-11-13T00:29:36.197Z,62.81
2022-11-13T00:34:56.563Z,62.95
2022-11-13T00:40:17.281Z,63.04
2022-11-13T00:45:37.526Z,62.70
2022-11-13T00:50:58.284Z,62.73
2022-11-13T00:56:18.536Z,62.84
2022-11-13T01:01:39.345Z,62.97
2022-11-13T01:06:59.646Z,62.77
2022-11-13T01:12:20.037Z,62.83
2022-11-13T01:17:40.465Z,62.89
2022-11-13T01:23:01.060Z,63.01
2022-11-13T01:28:21.429Z,62.83
2022-11-13T01:33:41.852Z,62.77
2022-11-13T01:39:02.486Z,62.92
2022-11-13T01:44:23.293Z,62.63
2022-11-13T01:49:45.653Z,62.57
2022-11-13T01:55:12.052Z,62.91
2022-11-13T02:00:32.285Z,63.03
2022-11-13T02:05:56.787Z,62.97
2022-11-13T02:11:17.667Z,62.87
2022-11-13T02:16:39.477Z,62.81
2022-11-13T02:22:10.749Z,63.16
2022-11-13T02:27:36.552Z,63.18
2022-11-13T02:32:58.328Z,63.00
2022-11-13T02:38:18.964Z,63.12
2022-11-13T02:43:39.392Z,63.11
2022-11-13T02:48:59.993Z,63.21
2022-11-13T02:54:20.583Z,63.37
2022-11-13T02:59:41.536Z,63.37
2022-11-13T03:05:17.067Z,63.63
2022-11-13T03:10:37.584Z,63.45
2022-11-13T03:16:06.838Z,63.49
2022-11-13T03:21:27.372Z,63.52
2022-11-13T03:26:47.641Z,63.43
2022-11-13T03:32:07.704Z,63.37
2022-11-13T03:37:28.003Z,63.46
2022-11-13T03:42:48.409Z,63.55
2022-11-13T03:48:09.288Z,63.29
2022-11-13T03:53:29.745Z,63.50
2022-11-13T03:58:49.931Z,63.43
2022-11-13T04:04:10.267Z,63.41
2022-11-13T04:09:30.578Z,63.22
2022-11-13T04:14:50.863Z,63.43
2022-11-13T04:20:11.846Z,63.42
2022-11-13T04:25:32.290Z,63.31
2022-11-13T04:30:56.122Z,63.51
2022-11-13T04:36:16.422Z,63.25
2022-11-13T04:41:55.760Z,63.69
2022-11-13T04:47:16.052Z,63.62
2022-11-13T04:52:36.469Z,63.63
2022-11-13T04:57:56.745Z,63.78
2022-11-13T05:03:16.947Z,63.92
2022-11-13T05:08:37.312Z,63.63
2022-11-13T05:14:03.035Z,63.64
2022-11-13T05:19:24.646Z,63.82
2022-11-13T05:24:44.670Z,63.92
2022-11-13T05:30:05.638Z,63.92
2022-11-13T05:35:26.081Z,63.92
2022-11-13T05:40:46.683Z,64.03
2022-11-13T05:46:29.093Z,64.21
2022-11-13T05:51:49.307Z,63.79
2022-11-13T05:57:09.642Z,64.12
2022-11-13T06:02:30.115Z,64.29
2022-11-13T06:07:50.746Z,64.43
2022-11-13T06:13:10.982Z,64.56
2022-11-13T06:18:31.975Z,64.55
2022-11-13T06:23:52.426Z,64.41
2022-11-13T06:29:13.185Z,64.31
2022-11-13T06:34:33.456Z,64.36
2022-11-13T06:39:53.746Z,64.28
2022-11-13T06:45:14.129Z,64.16
2022-11-13T06:50:34.551Z,64.20
2022-11-13T06:55:54.666Z,64.40
2022-11-13T07:01:18.049Z,64.73
2022-11-13T07:06:40.552Z,64.54
2022-11-13T07:12:00.726Z,65.12
2022-11-13T07:17:21.016Z,65.56
2022-11-13T07:22:41.454Z,65.72
2022-11-13T07:28:01.751Z,65.99
2022-11-13T07:33:22.298Z,66.18
2022-11-13T07:38:42.754Z,66.03
2022-11-13T07:44:07.938Z,66.45
2022-11-13T07:49:29.689Z,66.58
2022-11-13T07:54:50.225Z,66.50
2022-11-13T08:00:11.337Z,66.78
2022-11-13T08:05:34.246Z,67.33
2022-11-13T08:10:54.358Z,67.48
2022-11-13T08:16:14.885Z,67.60
2022-11-13T08:21:35.991Z,68.09
2022-11-13T08:26:56.080Z,68.11
2022-11-13T08:32:18.215Z,68.19
2022-11-13T08:37:38.424Z,68.31
2022-11-13T08:43:03.932Z,68.26
2022-11-13T08:48:25.359Z,68.46
2022-11-13T08:53:45.787Z,68.90
2022-11-13T08:59:06.043Z,69.04
2022-11-13T09:04:27.121Z,68.96
2022-11-13T09:09:47.640Z,69.06
2022-11-13T09:15:08.522Z,69.16
2022-11-13T09:20:30.839Z,69.19
2022-11-13T09:25:51.159Z,69.07
2022-11-13T09:31:11.553Z,69.27
2022-11-13T09:36:31.911Z,69.34
2022-11-13T09:42:02.324Z,69.54
2022-11-13T09:47:30.624Z,69.90
2022-11-13T09:52:52.172Z,69.74
2022-11-13T09:58:38.937Z,70.06
2022-11-13T10:04:06.132Z,70.29
2022-11-13T10:09:55.584Z,70.81
2022-11-13T10:15:17.258Z,70.71
2022-11-13T10:20:49.959Z,70.93
2022-11-13T10:26:29.585Z,71.37
2022-11-13T10:31:52.342Z,71.54
2022-11-13T10:37:21.204Z,71.86
2022-11-13T10:42:41.835Z,72.01
2022-11-13T10:48:04.602Z,71.84
2022-11-13T10:53:27.586Z,71.98
2022-11-13T10:59:12.038Z,72.21
2022-11-13T11:04:32.480Z,72.22
2022-11-13T11:09:53.042Z,72.47
2022-11-13T11:15:37.206Z,72.56
2022-11-13T11:20:59.794Z,72.47
2022-11-13T11:26:35.345Z,72.45
2022-11-13T11:32:10.647Z,72.51
2022-11-13T11:37:44.124Z,72.25
2022-11-13T11:43:43.641Z,72.52
2022-11-13T11:49:03.974Z,72.34
2022-11-13T11:54:35.025Z,72.44
2022-11-13T12:00:13.443Z,72.90
2022-11-13T12:05:49.607Z,72.82
2022-11-13T12:11:37.647Z,73.05
2022-11-13T12:17:17.156Z,72.95
2022-11-13T12:23:02.714Z,73.05
2022-11-13T12:28:31.517Z,73.02
2022-11-13T12:34:18.885Z,73.03
2022-11-13T12:39:55.230Z,72.88
2022-11-13T12:45:38.602Z,72.85
2022-11-13T12:51:04.895Z,72.68
2022-11-13T12:56:26.117Z,72.60
2022-11-13T13:02:01.405Z,72.59
2022-11-13T13:07:48.009Z,72.66
2022-11-13T13:13:23.705Z,72.67
2022-11-13T13:18:45.143Z,72.45
2022-11-13T13:24:28.619Z,72.57
2022-11-13T13:29:48.968Z,72.42
2022-11-13T13:35:44.715Z,72.52
2022-11-13T13:41:58.788Z,72.48
2022-11-13T13:47:32.287Z,72.37
2022-11-13T13:52:55.915Z,72.35
2022-11-13T13:58:21.753Z,72.34
2022-11-13T14:03:42.395Z,72.40
2022-11-13T14:09:19.332Z,72.56
2022-11-13T14:14:40.164Z,72.39
2022-11-13T14:20:01.239Z,72.50
2022-11-13T14:25:28.051Z,72.89
2022-11-13T14:30:57.826Z,72.86
2022-11-13T14:36:27.810Z,73.02
2022-11-13T14:41:58.158Z,73.06
2022-11-13T14:47:37.760Z,73.30
2022-11-13T14:53:01.942Z,73.23
2022-11-13T14:58:29.726Z,73.20
2022-11-13T15:03:51.379Z,73.42
2022-11-13T15:09:15.525Z,73.32
2022-11-13T15:14:39.810Z,73.45
2022-11-13T15:20:02.148Z,73.57
2022-11-13T15:25:26.605Z,73.64
2022-11-13T15:30:47.104Z,73.84
2022-11-13T15:36:09.497Z,73.80
2022-11-13T15:41:30.606Z,73.95
2022-11-13T15:46:50.940Z,73.96
2022-11-13T15:52:11.575Z,74.35
2022-11-13T15:57:31.700Z,74.41
2022-11-13T16:02:56.918Z,74.95
2022-11-13T16:08:17.481Z,75.36
2022-11-13T16:13:38.197Z,75.38
2022-11-13T16:19:00.361Z,75.44
2022-11-13T16:24:24.189Z,75.34
2022-11-13T16:29:45.023Z,75.37
2022-11-13T16:35:05.871Z,75.66
2022-11-13T16:40:27.237Z,75.91
2022-11-13T16:45:47.804Z,76.24
2022-11-13T16:51:08.251Z,76.44
2022-11-13T16:56:30.723Z,76.89
2022-11-13T17:01:55.291Z,77.13
2022-11-13T17:07:16.171Z,76.87
2022-11-13T17:12:36.564Z,76.85
2022-11-13T17:17:58.624Z,76.95
2022-11-13T17:23:18.948Z,76.70
2022-11-13T17:28:40.459Z,76.57
2022-11-13T17:34:01.183Z,76.53
2022-11-13T17:39:21.813Z,76.65
2022-11-13T17:44:43.711Z,76.84
2022-11-13T17:50:07.594Z,76.95
2022-11-13T17:55:28.130Z,76.96
2022-11-13T18:00:49.155Z,77.06
2022-11-13T18:06:15.534Z,77.15
2022-11-13T18:11:41.243Z,77.58
2022-11-13T18:17:01.466Z,78.21
2022-11-13T18:22:22.561Z,78.68
2022-11-13T18:27:44.260Z,78.88
2022-11-13T18:33:05.091Z,79.02
2022-11-13T18:38:25.735Z,79.21
2022-11-13T18:43:48.587Z,79.34
2022-11-13T18:49:09.644Z,79.33
2022-11-13T18:54:30.133Z,79.29
2022-11-13T18:59:50.567Z,79.33
2022-11-13T19:05:11.443Z,78.98
2022-11-13T19:10:34.463Z,79.23
2022-11-13T19:15:56.071Z,79.56
2022-11-13T19:21:17.462Z,79.32
2022-11-13T19:26:38.978Z,79.48
2022-11-13T19:31:59.034Z,79.26
2022-11-13T19:37:19.521Z,79.03
2022-11-13T19:42:42.012Z,79.15
2022-11-13T19:48:02.867Z,79.06
2022-11-13T19:53:23.295Z,78.89
2022-11-13T19:58:44.893Z,79.27
2022-11-13T20:04:05.714Z,79.15
2022-11-13T20:09:25.914Z,79.19
2022-11-13T20:14:46.622Z,79.20
2022-11-13T20:20:08.365Z,79.29
2022-11-13T20:25:28.966Z,78.88
2022-11-13T20:30:51.662Z,79.06
2022-11-13T20:36:18.459Z,79.20
2022-11-13T20:41:39.023Z,79.09
2022-11-13T20:47:02.125Z,79.11
2022-11-13T20:52:24.767Z,79.12
2022-11-13T20:57:49.891Z,78.89
2022-11-13T21:03:10.228Z,79.09
2022-11-13T21:08:31.359Z,79.02
2022-11-13T21:13:55.682Z,79.22
2022-11-13T21:19:15.746Z,79.20
2022-11-13T21:24:37.999Z,79.20
2022-11-13T21:29:58.166Z,79.21
2022-11-13T21:35:22.384Z,79.31
2022-11-13T21:40:44.642Z,79.29
2022-11-13T21:46:06.345Z,79.22
2022-11-13T21:51:26.844Z,79.19
2022-11-13T21:56:47.003Z,79.21
2022-11-13T22:02:11.394Z,79.04
2022-11-13T22:07:32.233Z,79.15
2022-11-13T22:12:52.792Z,79.10
2022-11-13T22:18:13.046Z,78.97
2022-11-13T22:23:34.674Z,78.96
2022-11-13T22:28:56.343Z,78.94
2022-11-13T22:34:16.987Z,79.19
2022-11-13T22:39:37.738Z,78.92
2022-11-13T22:44:57.940Z,78.85
2022-11-13T22:50:18.281Z,78.93
2022-11-13T22:55:38.619Z,78.92
2022-11-13T23:01:07.912Z,78.81
2022-11-13T23:06:31.674Z,78.91
2022-11-13T23:11:51.789Z,78.67
2022-11-13T23:17:12.281Z,78.75
2022-11-13T23:22:32.574Z,78.72
2022-11-13T23:27:52.917Z,78.72
2022-11-13T23:33:13.389Z,78.97
2022-11-13T23:38:33.966Z,78.84
2022-11-13T23:44:08.071Z,78.86
2022-11-13T23:49:29.037Z,78.55
2022-11-13T23:54:49.225Z,78.45
